Strona główna
METAR-TAF:

METAR-TAF

Lotnisko :

Marham, Anglia

Szerokość geograficzna: 52-39N, Długość geograficzna: 000-34E, wysokość: 23 m

Aktualna obserwacja pogody

Raport powstał 58 minut temu, godzina 14:50 UTC
Wiatr 23 kt od północno-północny wschód
Temperatura 9°C
Wilgotność 57%
Ciśnienie 1031 hPa
Widzialność 10 km lub więcej

METAR: EGYM 281450Z AUTO 03023KT 9999 SCT036/// 09/01 Q1031

czas: 15:48 (15:48 UTC)

Prognoza

Raport powstał 26 godziny i 15 minut temu, godzina 13:33 UTC
Prognoza ważna od 27 godzina 15 UTC do 27 godzina 18 UTC
Wiatr 12 kt od północny wschód
Widzialność 10 km lub więcej
Brak chmur poniżej 1500 m i brak chmur cumulonimbus

TAF: EGYM 271333Z 2715/2718 04012KT CAVOK

Obserwacja i prognoza pogody dla ponad 4000 lotnisk (raport METAR i TAF).

Dostępne stacje oznaczono żółtymi i czerwonymi punktami na mapie.

Najedź kursorem aby zobaczyć nazwę stacji.

Kliknij aby zobaczyć obserwacje i prognozy pogody.

Aby zmienić mapę: kliknij na zielony przycisk z czarnym krzyżykiem, aby powiększyć; na zielony przycisk z myślnikiem, aby pomniejszyć; na zielone strzałki, aby przejść do map sąsiednich.


METAR-TAF: